メインページ
METAR-TAF:

METAR-TAF

空港 :

カラカス, ベネズエラ

シモン・ボリバル国際空港

緯度: 10-36N, 経度: 066-59W, 海抜: 43m

現時点の気象観測

当レポートは1時間5分前の21:00(UTC)に作成
北東の風 5kt
気温 26°C
湿度 84%
気圧 1013 hPa
視程10km以上
高度1600ftの雲は散在している

METAR: SVMI 192100Z 05005KT 9999 SCT016 26/23 Q1013

時間: 18:05 (22:05 UTC)

予報

当レポートは6時間5分前の16:00(UTC)に作成
予報は19日の 18時(UTC)から 20日の 18時(UTC)まで有効
の風 12kt
視程10km以上
高度1600ftの雲は散在している
19日の 19時(UTC)から 19日の 23時(UTC)まで徐々に
の風 kt
高度1600ftの雲はほとんどない
高度10000ftの雲は散在している

TAF: SVMI 191600Z 1918/2018 09012KT 9999 SCT016 TX31/18Z TN23/09Z BECMG 1919/1923 00000KT FEW016 SCT100

4,000以上の空港の気象観測と天気予報(METAR報とTAF報)

利用可能な観測所は地図上に黄色い丸と赤い丸で示す。

丸の上にカーソルを重ねると観測所名を参照できる。

次にクリックすると気象観測と天気予報を参照できる。

マップの切り替え:黒色「×」印の緑ボタンをクリックして拡大、「-」印の緑ボタンをクリックして縮小、緑色の三角印をクリックして隣りの地図に切り替え


METAR-TAF: